sensor_id;sensor_type;location;lat;lon;timestamp;temperature;humidity
51719;DHT22;37795;53.236;5.704;2022-11-20T00:01:14;0.80;75.90
51719;DHT22;37795;53.236;5.704;2022-11-20T00:03:41;0.80;75.90
51719;DHT22;37795;53.236;5.704;2022-11-20T00:06:09;0.80;75.80
51719;DHT22;37795;53.236;5.704;2022-11-20T00:08:35;0.80;76.10
51719;DHT22;37795;53.236;5.704;2022-11-20T00:11:21;0.90;76.10
51719;DHT22;37795;53.236;5.704;2022-11-20T00:13:49;0.70;76.20
51719;DHT22;37795;53.236;5.704;2022-11-20T00:16:18;0.70;76.20
51719;DHT22;37795;53.236;5.704;2022-11-20T00:18:44;0.70;76.10
51719;DHT22;37795;53.236;5.704;2022-11-20T00:21:12;0.70;76.30
51719;DHT22;37795;53.236;5.704;2022-11-20T00:23:38;0.70;76.50
51719;DHT22;37795;53.236;5.704;2022-11-20T00:26:09;0.70;76.50
51719;DHT22;37795;53.236;5.704;2022-11-20T00:28:35;0.70;76.80
51719;DHT22;37795;53.236;5.704;2022-11-20T00:31:10;0.70;76.90
51719;DHT22;37795;53.236;5.704;2022-11-20T00:33:35;0.60;76.60
51719;DHT22;37795;53.236;5.704;2022-11-20T00:36:13;0.50;76.70
51719;DHT22;37795;53.236;5.704;2022-11-20T00:38:39;0.50;76.80
51719;DHT22;37795;53.236;5.704;2022-11-20T00:41:08;0.50;76.80
51719;DHT22;37795;53.236;5.704;2022-11-20T00:43:34;0.40;76.80
51719;DHT22;37795;53.236;5.704;2022-11-20T00:46:16;0.40;77.20
51719;DHT22;37795;53.236;5.704;2022-11-20T00:48:42;0.50;77.20
51719;DHT22;37795;53.236;5.704;2022-11-20T00:51:08;0.50;77.00
51719;DHT22;37795;53.236;5.704;2022-11-20T00:53:34;0.40;77.00
51719;DHT22;37795;53.236;5.704;2022-11-20T00:56:03;0.20;77.20
51719;DHT22;37795;53.236;5.704;2022-11-20T00:58:31;0.30;77.50
51719;DHT22;37795;53.236;5.704;2022-11-20T01:01:05;0.30;77.40
51719;DHT22;37795;53.236;5.704;2022-11-20T01:03:36;0.30;77.60
51719;DHT22;37795;53.236;5.704;2022-11-20T01:06:06;0.20;76.80
51719;DHT22;37795;53.236;5.704;2022-11-20T01:08:34;0.10;77.50
51719;DHT22;37795;53.236;5.704;2022-11-20T01:11:02;0.00;77.70
51719;DHT22;37795;53.236;5.704;2022-11-20T01:13:29;0.10;78.10
51719;DHT22;37795;53.236;5.704;2022-11-20T01:16:19;0.10;77.90
51719;DHT22;37795;53.236;5.704;2022-11-20T01:18:47;0.20;77.70
51719;DHT22;37795;53.236;5.704;2022-11-20T01:21:24;0.20;77.30
51719;DHT22;37795;53.236;5.704;2022-11-20T01:23:51;0.20;77.20
51719;DHT22;37795;53.236;5.704;2022-11-20T01:26:28;0.10;76.60
51719;DHT22;37795;53.236;5.704;2022-11-20T01:28:55;0.00;77.70
51719;DHT22;37795;53.236;5.704;2022-11-20T01:31:22;0.10;77.70
51719;DHT22;37795;53.236;5.704;2022-11-20T01:33:50;0.10;77.70
51719;DHT22;37795;53.236;5.704;2022-11-20T01:36:17;0.20;77.40
51719;DHT22;37795;53.236;5.704;2022-11-20T01:38:43;0.30;77.30
51719;DHT22;37795;53.236;5.704;2022-11-20T01:41:10;0.30;77.00
51719;DHT22;37795;53.236;5.704;2022-11-20T01:43:36;0.20;76.80
51719;DHT22;37795;53.236;5.704;2022-11-20T01:46:18;0.20;77.40
51719;DHT22;37795;53.236;5.704;2022-11-20T01:51:39;0.30;77.30
51719;DHT22;37795;53.236;5.704;2022-11-20T01:54:09;0.30;77.30
51719;DHT22;37795;53.236;5.704;2022-11-20T01:56:40;0.40;77.50
51719;DHT22;37795;53.236;5.704;2022-11-20T01:59:08;0.40;77.60
51719;DHT22;37795;53.236;5.704;2022-11-20T02:01:35;0.50;77.50
51719;DHT22;37795;53.236;5.704;2022-11-20T02:04:01;0.50;77.60
51719;DHT22;37795;53.236;5.704;2022-11-20T02:06:36;0.50;77.60
51719;DHT22;37795;53.236;5.704;2022-11-20T02:09:04;0.50;77.60
51719;DHT22;37795;53.236;5.704;2022-11-20T02:11:30;0.50;77.40
51719;DHT22;37795;53.236;5.704;2022-11-20T02:13:57;0.50;77.30
51719;DHT22;37795;53.236;5.704;2022-11-20T02:16:26;0.50;77.20
51719;DHT22;37795;53.236;5.704;2022-11-20T02:18:55;0.50;77.10
51719;DHT22;37795;53.236;5.704;2022-11-20T02:21:33;0.50;77.30
51719;DHT22;37795;53.236;5.704;2022-11-20T02:24:19;0.50;77.20
51719;DHT22;37795;53.236;5.704;2022-11-20T02:27:23;0.50;77.30
51719;DHT22;37795;53.236;5.704;2022-11-20T02:30:01;0.50;77.30
51719;DHT22;37795;53.236;5.704;2022-11-20T02:32:35;0.50;77.10
51719;DHT22;37795;53.236;5.704;2022-11-20T02:37:36;0.50;77.20
51719;DHT22;37795;53.236;5.704;2022-11-20T02:40:03;0.50;77.50
51719;DHT22;37795;53.236;5.704;2022-11-20T02:42:28;0.50;77.10
51719;DHT22;37795;53.236;5.704;2022-11-20T02:44:54;0.40;77.40
51719;DHT22;37795;53.236;5.704;2022-11-20T02:47:20;0.50;77.60
51719;DHT22;37795;53.236;5.704;2022-11-20T02:49:45;0.50;77.40
51719;DHT22;37795;53.236;5.704;2022-11-20T02:52:11;0.50;76.90
51719;DHT22;37795;53.236;5.704;2022-11-20T02:54:36;0.20;76.70
51719;DHT22;37795;53.236;5.704;2022-11-20T02:57:02;0.20;78.00
51719;DHT22;37795;53.236;5.704;2022-11-20T02:59:28;0.20;78.50
51719;DHT22;37795;53.236;5.704;2022-11-20T03:01:54;0.30;78.00
51719;DHT22;37795;53.236;5.704;2022-11-20T03:04:19;0.40;77.80
51719;DHT22;37795;53.236;5.704;2022-11-20T03:06:45;0.40;77.20
51719;DHT22;37795;53.236;5.704;2022-11-20T03:09:11;0.10;78.20
51719;DHT22;37795;53.236;5.704;2022-11-20T03:11:37;0.20;79.10
51719;DHT22;37795;53.236;5.704;2022-11-20T03:14:04;0.20;78.80
51719;DHT22;37795;53.236;5.704;2022-11-20T03:16:31;0.20;79.10
51719;DHT22;37795;53.236;5.704;2022-11-20T03:18:57;0.00;79.10
51719;DHT22;37795;53.236;5.704;2022-11-20T03:21:23;0.10;78.50
51719;DHT22;37795;53.236;5.704;2022-11-20T03:23:48;0.10;78.60
51719;DHT22;37795;53.236;5.704;2022-11-20T03:26:19;0.10;79.40
51719;DHT22;37795;53.236;5.704;2022-11-20T03:28:51;0.10;78.60
51719;DHT22;37795;53.236;5.704;2022-11-20T03:31:19;0.20;78.50
51719;DHT22;37795;53.236;5.704;2022-11-20T03:33:45;0.10;78.60
51719;DHT22;37795;53.236;5.704;2022-11-20T03:36:13;-0.10;78.40
51719;DHT22;37795;53.236;5.704;2022-11-20T03:38:40;-0.20;79.60
51719;DHT22;37795;53.236;5.704;2022-11-20T03:41:13;-0.30;79.90
51719;DHT22;37795;53.236;5.704;2022-11-20T03:43:40;-0.40;80.30
51719;DHT22;37795;53.236;5.704;2022-11-20T03:46:06;-0.40;81.00
51719;DHT22;37795;53.236;5.704;2022-11-20T03:48:32;-0.20;80.60
51719;DHT22;37795;53.236;5.704;2022-11-20T03:51:16;-0.20;80.10
51719;DHT22;37795;53.236;5.704;2022-11-20T03:53:44;-0.20;79.90
51719;DHT22;37795;53.236;5.704;2022-11-20T03:56:10;-0.10;79.50
51719;DHT22;37795;53.236;5.704;2022-11-20T03:58:37;-0.10;79.40
51719;DHT22;37795;53.236;5.704;2022-11-20T04:01:13;-0.10;78.70
51719;DHT22;37795;53.236;5.704;2022-11-20T04:03:40;-0.20;79.10
51719;DHT22;37795;53.236;5.704;2022-11-20T04:06:15;-0.20;79.00
51719;DHT22;37795;53.236;5.704;2022-11-20T04:08:41;-0.20;79.10
51719;DHT22;37795;53.236;5.704;2022-11-20T04:11:18;-0.20;79.10
51719;DHT22;37795;53.236;5.704;2022-11-20T04:13:49;-0.20;78.80
51719;DHT22;37795;53.236;5.704;2022-11-20T04:16:16;-0.20;78.70
51719;DHT22;37795;53.236;5.704;2022-11-20T04:18:42;-0.20;78.90
51719;DHT22;37795;53.236;5.704;2022-11-20T04:21:08;-0.40;78.40
51719;DHT22;37795;53.236;5.704;2022-11-20T04:23:34;-0.50;79.40
51719;DHT22;37795;53.236;5.704;2022-11-20T04:26:02;-0.40;79.20
51719;DHT22;37795;53.236;5.704;2022-11-20T04:28:28;-0.40;78.80
51719;DHT22;37795;53.236;5.704;2022-11-20T04:30:54;-0.40;78.70
51719;DHT22;37795;53.236;5.704;2022-11-20T04:33:19;-0.50;77.90
51719;DHT22;37795;53.236;5.704;2022-11-20T04:35:46;-0.70;78.70
51719;DHT22;37795;53.236;5.704;2022-11-20T04:38:13;-0.90;79.70
51719;DHT22;37795;53.236;5.704;2022-11-20T04:40:38;-0.90;80.30
51719;DHT22;37795;53.236;5.704;2022-11-20T04:43:04;-0.90;80.40
51719;DHT22;37795;53.236;5.704;2022-11-20T04:45:30;-1.00;80.90
51719;DHT22;37795;53.236;5.704;2022-11-20T04:47:55;-1.00;81.10
51719;DHT22;37795;53.236;5.704;2022-11-20T04:50:21;-1.00;81.20
51719;DHT22;37795;53.236;5.704;2022-11-20T04:52:47;-1.00;80.60
51719;DHT22;37795;53.236;5.704;2022-11-20T04:55:12;-0.80;80.70
51719;DHT22;37795;53.236;5.704;2022-11-20T04:57:38;-0.80;80.30
51719;DHT22;37795;53.236;5.704;2022-11-20T05:00:04;-0.80;79.60
51719;DHT22;37795;53.236;5.704;2022-11-20T05:02:31;-1.00;80.30
51719;DHT22;37795;53.236;5.704;2022-11-20T05:04:57;-0.90;80.70
51719;DHT22;37795;53.236;5.704;2022-11-20T05:07:23;-0.80;80.20
51719;DHT22;37795;53.236;5.704;2022-11-20T05:09:48;-0.80;79.80
51719;DHT22;37795;53.236;5.704;2022-11-20T05:12:14;-0.80;79.70
51719;DHT22;37795;53.236;5.704;2022-11-20T05:14:40;-0.80;79.50
51719;DHT22;37795;53.236;5.704;2022-11-20T05:17:05;-1.10;79.50
51719;DHT22;37795;53.236;5.704;2022-11-20T05:19:31;-1.20;80.30
51719;DHT22;37795;53.236;5.704;2022-11-20T05:21:57;-1.30;80.80
51719;DHT22;37795;53.236;5.704;2022-11-20T05:24:22;-1.20;80.60
51719;DHT22;37795;53.236;5.704;2022-11-20T05:26:48;-1.10;80.70
51719;DHT22;37795;53.236;5.704;2022-11-20T05:29:14;-1.20;79.90
51719;DHT22;37795;53.236;5.704;2022-11-20T05:31:40;-1.20;80.10
51719;DHT22;37795;53.236;5.704;2022-11-20T05:34:06;-1.10;80.00
51719;DHT22;37795;53.236;5.704;2022-11-20T05:36:32;-1.10;79.40
51719;DHT22;37795;53.236;5.704;2022-11-20T05:38:58;-1.20;79.90
51719;DHT22;37795;53.236;5.704;2022-11-20T05:41:24;-1.30;80.10
51719;DHT22;37795;53.236;5.704;2022-11-20T05:43:50;-1.20;80.70
51719;DHT22;37795;53.236;5.704;2022-11-20T05:46:19;-1.10;80.00
51719;DHT22;37795;53.236;5.704;2022-11-20T05:48:46;-1.10;80.00
51719;DHT22;37795;53.236;5.704;2022-11-20T05:51:14;-1.10;79.60
51719;DHT22;37795;53.236;5.704;2022-11-20T05:53:40;-1.00;79.20
51719;DHT22;37795;53.236;5.704;2022-11-20T05:56:09;-1.30;79.80
51719;DHT22;37795;53.236;5.704;2022-11-20T05:58:35;-1.20;80.50
51719;DHT22;37795;53.236;5.704;2022-11-20T06:03:42;-1.00;80.00
51719;DHT22;37795;53.236;5.704;2022-11-20T06:06:11;-0.90;79.60
51719;DHT22;37795;53.236;5.704;2022-11-20T06:08:37;-0.80;79.40
51719;DHT22;37795;53.236;5.704;2022-11-20T06:11:05;-0.80;79.10
51719;DHT22;37795;53.236;5.704;2022-11-20T06:13:31;-0.80;79.10
51719;DHT22;37795;53.236;5.704;2022-11-20T06:15:57;-0.70;78.90
51719;DHT22;37795;53.236;5.704;2022-11-20T06:18:22;-0.60;78.70
51719;DHT22;37795;53.236;5.704;2022-11-20T06:20:48;-0.50;78.60
51719;DHT22;37795;53.236;5.704;2022-11-20T06:23:14;-0.50;78.40
51719;DHT22;37795;53.236;5.704;2022-11-20T06:25:41;-0.70;78.10
51719;DHT22;37795;53.236;5.704;2022-11-20T06:28:08;-0.70;78.80
51719;DHT22;37795;53.236;5.704;2022-11-20T06:30:34;-0.60;78.90
51719;DHT22;37795;53.236;5.704;2022-11-20T06:33:00;-0.60;78.30
51719;DHT22;37795;53.236;5.704;2022-11-20T06:35:26;-0.50;78.30
51719;DHT22;37795;53.236;5.704;2022-11-20T06:37:52;-0.50;78.00
51719;DHT22;37795;53.236;5.704;2022-11-20T06:40:18;-0.50;78.00
51719;DHT22;37795;53.236;5.704;2022-11-20T06:42:44;-0.50;78.00
51719;DHT22;37795;53.236;5.704;2022-11-20T06:45:10;-0.50;77.80
51719;DHT22;37795;53.236;5.704;2022-11-20T06:47:35;-0.50;78.00
51719;DHT22;37795;53.236;5.704;2022-11-20T06:50:01;-0.50;77.70
51719;DHT22;37795;53.236;5.704;2022-11-20T06:59:16;-0.80;78.50
51719;DHT22;37795;53.236;5.704;2022-11-20T07:01:42;-1.00;78.80
51719;DHT22;37795;53.236;5.704;2022-11-20T07:04:07;-0.80;78.80
51719;DHT22;37795;53.236;5.704;2022-11-20T07:06:33;-0.80;78.50
51719;DHT22;37795;53.236;5.704;2022-11-20T07:08:59;-0.70;78.50
51719;DHT22;37795;53.236;5.704;2022-11-20T07:11:24;-0.70;78.40
51719;DHT22;37795;53.236;5.704;2022-11-20T07:13:50;-0.60;78.30
51719;DHT22;37795;53.236;5.704;2022-11-20T07:16:16;-0.60;78.00
51719;DHT22;37795;53.236;5.704;2022-11-20T07:18:42;-0.60;77.70
51719;DHT22;37795;53.236;5.704;2022-11-20T07:21:09;-0.50;78.00
51719;DHT22;37795;53.236;5.704;2022-11-20T07:23:35;-0.50;78.00
51719;DHT22;37795;53.236;5.704;2022-11-20T07:26:09;-0.50;78.10
51719;DHT22;37795;53.236;5.704;2022-11-20T07:28:35;-0.40;78.10
51719;DHT22;37795;53.236;5.704;2022-11-20T07:31:02;-0.40;78.00
51719;DHT22;37795;53.236;5.704;2022-11-20T07:33:28;-0.40;77.90
51719;DHT22;37795;53.236;5.704;2022-11-20T07:35:53;-0.50;77.90
51719;DHT22;37795;53.236;5.704;2022-11-20T07:38:19;-0.50;77.80
51719;DHT22;37795;53.236;5.704;2022-11-20T07:40:45;-0.60;78.20
51719;DHT22;37795;53.236;5.704;2022-11-20T07:43:10;-0.90;78.70
51719;DHT22;37795;53.236;5.704;2022-11-20T07:45:36;-0.90;79.70
51719;DHT22;37795;53.236;5.704;2022-11-20T07:48:02;-0.90;79.20
51719;DHT22;37795;53.236;5.704;2022-11-20T07:50:28;-1.00;79.40
51719;DHT22;37795;53.236;5.704;2022-11-20T07:53:04;-1.00;80.20
51719;DHT22;37795;53.236;5.704;2022-11-20T07:55:30;-0.90;79.50
51719;DHT22;37795;53.236;5.704;2022-11-20T07:57:56;-1.00;79.70
51719;DHT22;37795;53.236;5.704;2022-11-20T08:00:23;-1.00;80.00
51719;DHT22;37795;53.236;5.704;2022-11-20T08:02:48;-1.00;80.10
51719;DHT22;37795;53.236;5.704;2022-11-20T08:05:14;-0.70;80.30
51719;DHT22;37795;53.236;5.704;2022-11-20T08:07:42;-0.50;79.80
51719;DHT22;37795;53.236;5.704;2022-11-20T08:10:09;-0.10;78.70
51719;DHT22;37795;53.236;5.704;2022-11-20T08:12:35;0.00;77.50
51719;DHT22;37795;53.236;5.704;2022-11-20T08:15:20;0.30;77.10
51719;DHT22;37795;53.236;5.704;2022-11-20T08:17:46;0.20;76.20
51719;DHT22;37795;53.236;5.704;2022-11-20T08:20:11;0.30;76.30
51719;DHT22;37795;53.236;5.704;2022-11-20T08:22:37;0.20;76.30
51719;DHT22;37795;53.236;5.704;2022-11-20T08:25:03;0.30;76.60
51719;DHT22;37795;53.236;5.704;2022-11-20T08:27:31;0.40;76.30
51719;DHT22;37795;53.236;5.704;2022-11-20T08:29:57;0.40;76.00
51719;DHT22;37795;53.236;5.704;2022-11-20T08:32:22;0.50;76.20
51719;DHT22;37795;53.236;5.704;2022-11-20T08:34:48;0.90;75.90
51719;DHT22;37795;53.236;5.704;2022-11-20T08:37:14;1.30;74.60
51719;DHT22;37795;53.236;5.704;2022-11-20T08:39:39;1.20;73.60
51719;DHT22;37795;53.236;5.704;2022-11-20T08:42:08;1.10;73.90
51719;DHT22;37795;53.236;5.704;2022-11-20T08:44:34;1.10;74.20
51719;DHT22;37795;53.236;5.704;2022-11-20T08:47:00;1.10;74.60
51719;DHT22;37795;53.236;5.704;2022-11-20T08:49:25;1.70;76.50
51719;DHT22;37795;53.236;5.704;2022-11-20T08:51:51;3.40;71.70
51719;DHT22;37795;53.236;5.704;2022-11-20T08:54:19;4.30;67.10
51719;DHT22;37795;53.236;5.704;2022-11-20T08:56:47;4.20;64.60
51719;DHT22;37795;53.236;5.704;2022-11-20T08:59:13;2.80;68.20
51719;DHT22;37795;53.236;5.704;2022-11-20T09:01:38;2.40;70.60
51719;DHT22;37795;53.236;5.704;2022-11-20T09:04:04;2.40;70.50
51719;DHT22;37795;53.236;5.704;2022-11-20T09:06:30;2.40;70.70
51719;DHT22;37795;53.236;5.704;2022-11-20T09:08:56;3.30;71.80
51719;DHT22;37795;53.236;5.704;2022-11-20T09:11:22;5.60;65.00
51719;DHT22;37795;53.236;5.704;2022-11-20T09:13:48;6.90;60.70
51719;DHT22;37795;53.236;5.704;2022-11-20T09:16:14;6.60;59.50
51719;DHT22;37795;53.236;5.704;2022-11-20T09:18:39;6.10;60.20
51719;DHT22;37795;53.236;5.704;2022-11-20T09:21:08;5.10;61.40
51719;DHT22;37795;53.236;5.704;2022-11-20T09:23:37;4.20;64.80
51719;DHT22;37795;53.236;5.704;2022-11-20T09:26:10;3.60;66.60
51719;DHT22;37795;53.236;5.704;2022-11-20T09:28:36;3.60;67.40
51719;DHT22;37795;53.236;5.704;2022-11-20T09:31:08;3.60;67.50
51719;DHT22;37795;53.236;5.704;2022-11-20T09:33:35;3.40;67.80
51719;DHT22;37795;53.236;5.704;2022-11-20T09:36:01;3.40;68.90
51719;DHT22;37795;53.236;5.704;2022-11-20T09:38:26;3.30;68.80
51719;DHT22;37795;53.236;5.704;2022-11-20T09:41:04;3.30;69.30
51719;DHT22;37795;53.236;5.704;2022-11-20T09:44:01;3.20;69.30
51719;DHT22;37795;53.236;5.704;2022-11-20T09:46:44;3.20;69.30
51719;DHT22;37795;53.236;5.704;2022-11-20T09:49:32;3.20;69.40
51719;DHT22;37795;53.236;5.704;2022-11-20T09:54:49;3.30;69.90
51719;DHT22;37795;53.236;5.704;2022-11-20T09:57:19;3.20;69.70
51719;DHT22;37795;53.236;5.704;2022-11-20T09:59:50;3.30;69.40
51719;DHT22;37795;53.236;5.704;2022-11-20T10:04:55;3.40;69.30
51719;DHT22;37795;53.236;5.704;2022-11-20T10:07:51;3.50;69.60
51719;DHT22;37795;53.236;5.704;2022-11-20T10:10:36;3.60;69.60
51719;DHT22;37795;53.236;5.704;2022-11-20T10:13:23;3.50;69.30
51719;DHT22;37795;53.236;5.704;2022-11-20T10:16:03;3.60;68.90
51719;DHT22;37795;53.236;5.704;2022-11-20T10:18:39;3.70;69.10
51719;DHT22;37795;53.236;5.704;2022-11-20T10:21:23;3.60;68.60
51719;DHT22;37795;53.236;5.704;2022-11-20T10:27:04;3.50;68.70
51719;DHT22;37795;53.236;5.704;2022-11-20T10:29:36;3.50;69.20
51719;DHT22;37795;53.236;5.704;2022-11-20T10:32:14;3.40;69.20
51719;DHT22;37795;53.236;5.704;2022-11-20T10:34:59;3.50;69.30
51719;DHT22;37795;53.236;5.704;2022-11-20T10:37:27;3.70;69.80
51719;DHT22;37795;53.236;5.704;2022-11-20T10:40:00;3.80;69.90
51719;DHT22;37795;53.236;5.704;2022-11-20T10:43:04;3.90;70.00
51719;DHT22;37795;53.236;5.704;2022-11-20T10:48:50;3.60;68.40
51719;DHT22;37795;53.236;5.704;2022-11-20T10:51:37;3.60;68.90
51719;DHT22;37795;53.236;5.704;2022-11-20T11:02:22;3.30;69.40
51719;DHT22;37795;53.236;5.704;2022-11-20T11:04:53;3.40;69.40
51719;DHT22;37795;53.236;5.704;2022-11-20T11:07:29;3.40;69.60
51719;DHT22;37795;53.236;5.704;2022-11-20T11:09:56;3.50;70.00
51719;DHT22;37795;53.236;5.704;2022-11-20T11:12:24;3.40;69.90
51719;DHT22;37795;53.236;5.704;2022-11-20T11:14:52;3.50;69.90
51719;DHT22;37795;53.236;5.704;2022-11-20T11:17:22;3.40;69.30
51719;DHT22;37795;53.236;5.704;2022-11-20T11:22:30;3.40;69.90
51719;DHT22;37795;53.236;5.704;2022-11-20T11:24:56;3.30;69.30
51719;DHT22;37795;53.236;5.704;2022-11-20T11:27:21;3.50;69.70
51719;DHT22;37795;53.236;5.704;2022-11-20T11:29:47;3.50;69.20
51719;DHT22;37795;53.236;5.704;2022-11-20T11:32:14;3.40;67.80
51719;DHT22;37795;53.236;5.704;2022-11-20T11:34:40;3.50;66.10
51719;DHT22;37795;53.236;5.704;2022-11-20T11:37:26;3.40;64.00
51719;DHT22;37795;53.236;5.704;2022-11-20T11:39:57;3.60;63.60
51719;DHT22;37795;53.236;5.704;2022-11-20T11:42:24;3.70;62.80
51719;DHT22;37795;53.236;5.704;2022-11-20T11:44:49;3.90;62.60
51719;DHT22;37795;53.236;5.704;2022-11-20T11:52:51;3.70;62.30
51719;DHT22;37795;53.236;5.704;2022-11-20T11:55:36;3.70;62.70
51719;DHT22;37795;53.236;5.704;2022-11-20T11:58:40;3.70;63.60
51719;DHT22;37795;53.236;5.704;2022-11-20T12:01:35;3.70;63.80
51719;DHT22;37795;53.236;5.704;2022-11-20T12:07:24;3.60;62.90
51719;DHT22;37795;53.236;5.704;2022-11-20T12:09:54;3.60;61.70
51719;DHT22;37795;53.236;5.704;2022-11-20T12:12:39;3.50;61.60
51719;DHT22;37795;53.236;5.704;2022-11-20T12:15:11;3.30;61.30
51719;DHT22;37795;53.236;5.704;2022-11-20T12:17:38;3.30;61.10
51719;DHT22;37795;53.236;5.704;2022-11-20T12:20:15;3.30;60.40
51719;DHT22;37795;53.236;5.704;2022-11-20T12:22:54;3.30;61.20
51719;DHT22;37795;53.236;5.704;2022-11-20T12:25:27;3.20;59.80
51719;DHT22;37795;53.236;5.704;2022-11-20T12:39:31;3.30;59.50
51719;DHT22;37795;53.236;5.704;2022-11-20T12:42:54;3.20;58.70
51719;DHT22;37795;53.236;5.704;2022-11-20T12:48:25;3.20;58.80
51719;DHT22;37795;53.236;5.704;2022-11-20T12:51:21;3.20;58.30
51719;DHT22;37795;53.236;5.704;2022-11-20T12:57:12;3.20;58.00
51719;DHT22;37795;53.236;5.704;2022-11-20T13:03:27;3.10;56.90
51719;DHT22;37795;53.236;5.704;2022-11-20T13:05:51;3.00;57.00
51719;DHT22;37795;53.236;5.704;2022-11-20T13:08:22;2.90;57.20
51719;DHT22;37795;53.236;5.704;2022-11-20T13:16:52;2.90;57.90
51719;DHT22;37795;53.236;5.704;2022-11-20T13:19:12;2.80;57.70
51719;DHT22;37795;53.236;5.704;2022-11-20T13:21:49;2.90;58.40
51719;DHT22;37795;53.236;5.704;2022-11-20T13:26:44;3.00;58.60
51719;DHT22;37795;53.236;5.704;2022-11-20T13:29:19;3.00;59.10
51719;DHT22;37795;53.236;5.704;2022-11-20T13:31:48;3.00;59.00
51719;DHT22;37795;53.236;5.704;2022-11-20T13:34:24;2.90;58.90
51719;DHT22;37795;53.236;5.704;2022-11-20T13:36:53;2.80;58.70
51719;DHT22;37795;53.236;5.704;2022-11-20T13:39:35;2.80;59.30
51719;DHT22;37795;53.236;5.704;2022-11-20T13:42:20;2.90;59.70
51719;DHT22;37795;53.236;5.704;2022-11-20T13:45:02;2.90;60.20
51719;DHT22;37795;53.236;5.704;2022-11-20T13:47:29;2.90;60.10
51719;DHT22;37795;53.236;5.704;2022-11-20T13:49:59;2.80;59.80
51719;DHT22;37795;53.236;5.704;2022-11-20T13:52:45;2.80;60.20
51719;DHT22;37795;53.236;5.704;2022-11-20T14:00:55;2.70;61.40
51719;DHT22;37795;53.236;5.704;2022-11-20T14:03:24;2.50;62.20
51719;DHT22;37795;53.236;5.704;2022-11-20T14:06:02;2.60;62.20
51719;DHT22;37795;53.236;5.704;2022-11-20T14:08:48;2.70;62.40
51719;DHT22;37795;53.236;5.704;2022-11-20T14:11:17;2.70;62.70
51719;DHT22;37795;53.236;5.704;2022-11-20T14:14:13;2.70;62.80
51719;DHT22;37795;53.236;5.704;2022-11-20T14:16:39;2.70;62.00
51719;DHT22;37795;53.236;5.704;2022-11-20T14:21:47;2.70;62.20
51719;DHT22;37795;53.236;5.704;2022-11-20T14:24:13;2.70;61.80
51719;DHT22;37795;53.236;5.704;2022-11-20T14:26:44;2.60;61.70
51719;DHT22;37795;53.236;5.704;2022-11-20T14:29:15;2.60;61.50
51719;DHT22;37795;53.236;5.704;2022-11-20T14:31:42;2.60;62.40
51719;DHT22;37795;53.236;5.704;2022-11-20T14:34:17;2.70;62.60
51719;DHT22;37795;53.236;5.704;2022-11-20T14:36:44;2.60;62.50
51719;DHT22;37795;53.236;5.704;2022-11-20T14:39:32;2.60;62.10
51719;DHT22;37795;53.236;5.704;2022-11-20T14:41:58;2.60;61.20
51719;DHT22;37795;53.236;5.704;2022-11-20T14:44:29;2.50;62.10
51719;DHT22;37795;53.236;5.704;2022-11-20T14:46:57;2.60;62.20
51719;DHT22;37795;53.236;5.704;2022-11-20T14:49:25;2.50;62.30
51719;DHT22;37795;53.236;5.704;2022-11-20T14:52:01;2.50;63.10
51719;DHT22;37795;53.236;5.704;2022-11-20T14:54:27;2.50;62.60
51719;DHT22;37795;53.236;5.704;2022-11-20T14:57:02;2.50;62.50
51719;DHT22;37795;53.236;5.704;2022-11-20T14:59:31;2.50;63.00
51719;DHT22;37795;53.236;5.704;2022-11-20T15:01:59;2.50;62.90
51719;DHT22;37795;53.236;5.704;2022-11-20T15:04:25;2.60;63.00
51719;DHT22;37795;53.236;5.704;2022-11-20T15:06:57;2.60;62.50
51719;DHT22;37795;53.236;5.704;2022-11-20T15:09:23;2.50;62.40
51719;DHT22;37795;53.236;5.704;2022-11-20T15:11:58;2.50;62.80
51719;DHT22;37795;53.236;5.704;2022-11-20T15:14:25;2.60;62.80
51719;DHT22;37795;53.236;5.704;2022-11-20T15:16:52;2.50;63.40
51719;DHT22;37795;53.236;5.704;2022-11-20T15:19:23;2.50;63.60
51719;DHT22;37795;53.236;5.704;2022-11-20T15:21:50;2.50;63.20
51719;DHT22;37795;53.236;5.704;2022-11-20T15:24:16;2.50;62.70
51719;DHT22;37795;53.236;5.704;2022-11-20T15:26:42;2.50;62.70
51719;DHT22;37795;53.236;5.704;2022-11-20T15:29:09;2.50;62.80
51719;DHT22;37795;53.236;5.704;2022-11-20T15:31:36;2.50;62.60
51719;DHT22;37795;53.236;5.704;2022-11-20T15:34:04;2.60;62.70
51719;DHT22;37795;53.236;5.704;2022-11-20T15:36:31;2.60;61.90
51719;DHT22;37795;53.236;5.704;2022-11-20T15:38:57;2.50;62.00
51719;DHT22;37795;53.236;5.704;2022-11-20T15:41:22;2.50;61.50
51719;DHT22;37795;53.236;5.704;2022-11-20T15:43:48;2.50;61.80
51719;DHT22;37795;53.236;5.704;2022-11-20T15:46:16;2.50;61.80
51719;DHT22;37795;53.236;5.704;2022-11-20T15:48:51;2.50;62.10
51719;DHT22;37795;53.236;5.704;2022-11-20T15:53:51;2.60;61.60
51719;DHT22;37795;53.236;5.704;2022-11-20T15:56:17;2.50;61.40
51719;DHT22;37795;53.236;5.704;2022-11-20T15:58:42;2.50;61.50
51719;DHT22;37795;53.236;5.704;2022-11-20T16:01:13;2.50;62.10
51719;DHT22;37795;53.236;5.704;2022-11-20T16:03:39;2.50;62.40
51719;DHT22;37795;53.236;5.704;2022-11-20T16:06:05;2.60;62.70
51719;DHT22;37795;53.236;5.704;2022-11-20T16:08:31;2.50;61.70
51719;DHT22;37795;53.236;5.704;2022-11-20T16:10:57;2.50;61.80
51719;DHT22;37795;53.236;5.704;2022-11-20T16:13:22;2.40;61.50
51719;DHT22;37795;53.236;5.704;2022-11-20T16:16:37;2.50;62.10
51719;DHT22;37795;53.236;5.704;2022-11-20T16:19:04;2.40;62.10
51719;DHT22;37795;53.236;5.704;2022-11-20T16:21:30;2.40;62.40
51719;DHT22;37795;53.236;5.704;2022-11-20T16:24:01;2.40;62.10
51719;DHT22;37795;53.236;5.704;2022-11-20T16:26:28;2.40;62.30
51719;DHT22;37795;53.236;5.704;2022-11-20T16:28:54;2.30;62.10
51719;DHT22;37795;53.236;5.704;2022-11-20T16:31:20;2.30;62.30
51719;DHT22;37795;53.236;5.704;2022-11-20T16:33:50;2.20;61.80
51719;DHT22;37795;53.236;5.704;2022-11-20T16:36:17;2.20;62.70
51719;DHT22;37795;53.236;5.704;2022-11-20T16:38:43;2.20;62.20
51719;DHT22;37795;53.236;5.704;2022-11-20T16:41:09;2.20;63.10
51719;DHT22;37795;53.236;5.704;2022-11-20T16:43:52;2.30;63.00
51719;DHT22;37795;53.236;5.704;2022-11-20T16:46:20;2.30;62.90
51719;DHT22;37795;53.236;5.704;2022-11-20T16:49:11;2.20;63.30
51719;DHT22;37795;53.236;5.704;2022-11-20T16:51:37;2.20;63.70
51719;DHT22;37795;53.236;5.704;2022-11-20T16:54:04;2.20;63.50
51719;DHT22;37795;53.236;5.704;2022-11-20T16:56:30;2.20;63.80
51719;DHT22;37795;53.236;5.704;2022-11-20T16:58:57;2.10;64.10
51719;DHT22;37795;53.236;5.704;2022-11-20T17:01:25;2.20;63.60
51719;DHT22;37795;53.236;5.704;2022-11-20T17:03:59;2.10;63.90
51719;DHT22;37795;53.236;5.704;2022-11-20T17:06:27;2.10;63.80
51719;DHT22;37795;53.236;5.704;2022-11-20T17:08:54;2.20;63.90
51719;DHT22;37795;53.236;5.704;2022-11-20T17:11:20;2.10;63.80
51719;DHT22;37795;53.236;5.704;2022-11-20T17:13:46;2.10;63.60
51719;DHT22;37795;53.236;5.704;2022-11-20T17:16:17;2.10;63.80
51719;DHT22;37795;53.236;5.704;2022-11-20T17:18:44;2.10;63.60
51719;DHT22;37795;53.236;5.704;2022-11-20T17:21:11;2.10;64.20
51719;DHT22;37795;53.236;5.704;2022-11-20T17:23:39;2.10;64.20
51719;DHT22;37795;53.236;5.704;2022-11-20T17:26:13;2.20;64.20